Time;durP1;ratioP1;P1;durP2;ratioP2;P2;SDS_P1;SDS_P2;PMS_P1;PMS_P2;Temp;Humidity;BMP_temperature;BMP_pressure;BME280_temperature;BME280_humidity;BME280_pressure;Samples;Min_cycle;Max_cycle;Signal;HPM_P1;HPM_P2
2021/09/23 00:01:55;;;;;;;28.10;20.08;;;13.50;84.60;;;;;;5014521;28;20026;-84
2021/09/23 00:04:32;;;;;;;27.63;19.90;;;13.40;84.80;;;;;;5013785;28;20506;-83
2021/09/23 00:07:01;;;;;;;28.65;21.27;;;13.50;84.90;;;;;;5013833;28;20034;-84
2021/09/23 00:09:27;;;;;;;26.77;19.23;;;13.40;84.90;;;;;;5014339;28;20026;-85
2021/09/23 00:11:53;;;;;;;34.10;23.88;;;13.40;85.00;;;;;;5014196;28;20860;-83
2021/09/23 00:14:19;;;;;;;32.25;22.73;;;13.40;85.30;;;;;;5017854;28;20030;-82
2021/09/23 00:16:44;;;;;;;33.45;24.05;;;13.30;85.20;;;;;;5017732;28;20018;-83
2021/09/23 00:19:10;;;;;;;34.80;22.83;;;13.30;85.10;;;;;;5017927;28;20033;-83
2021/09/23 00:21:36;;;;;;;33.63;21.95;;;13.30;84.90;;;;;;5017615;28;20029;-82
2021/09/23 00:24:01;;;;;;;35.42;22.42;;;13.40;85.40;;;;;;5017185;28;20463;-84
2021/09/23 00:26:27;;;;;;;34.83;22.42;;;13.40;84.50;;;;;;5017050;28;20117;-84
2021/09/23 00:28:56;;;;;;;30.92;22.55;;;13.30;84.40;;;;;;5018402;28;20112;-84
2021/09/23 00:31:22;;;;;;;29.45;20.88;;;13.30;84.40;;;;;;5017946;28;20018;-81
2021/09/23 00:33:48;;;;;;;30.98;22.30;;;13.30;84.60;;;;;;5022505;28;20040;-82
2021/09/23 00:36:14;;;;;;;31.75;21.88;;;13.30;85.60;;;;;;5029522;28;20053;-82
2021/09/23 00:38:40;;;;;;;31.60;22.08;;;13.30;85.10;;;;;;5017538;28;20525;-83
2021/09/23 00:41:05;;;;;;;33.33;25.17;;;13.20;85.20;;;;;;5018064;28;20025;-83
2021/09/23 00:43:31;;;;;;;35.47;23.45;;;13.20;85.40;;;;;;5028733;28;20021;-81
2021/09/23 00:45:57;;;;;;;35.63;23.58;;;13.10;85.70;;;;;;5039081;28;20143;-84
2021/09/23 00:48:22;;;;;;;30.98;22.65;;;13.10;85.90;;;;;;5040224;28;20014;-83
2021/09/23 00:50:49;;;;;;;38.40;22.45;;;13.00;86.10;;;;;;5036134;28;20054;-84
2021/09/23 00:53:18;;;;;;;33.45;22.98;;;13.00;86.10;;;;;;5023005;28;20478;-85
2021/09/23 00:55:44;;;;;;;37.78;24.08;;;12.90;86.20;;;;;;5027120;28;20029;-82
2021/09/23 00:58:09;;;;;;;36.65;26.35;;;12.90;86.50;;;;;;5034267;28;20034;-85
2021/09/23 01:00:35;;;;;;;39.97;24.60;;;12.90;87.40;;;;;;5022096;28;20029;-85
2021/09/23 01:03:01;;;;;;;36.15;24.75;;;12.80;86.80;;;;;;5027152;28;20038;-85
2021/09/23 01:05:27;;;;;;;36.97;24.70;;;12.80;86.70;;;;;;5039064;28;20026;-85
2021/09/23 01:07:52;;;;;;;42.45;26.35;;;12.90;86.70;;;;;;5020247;28;20172;-85
2021/09/23 01:10:20;;;;;;;36.90;24.15;;;12.90;86.70;;;;;;5017777;28;20022;-84
2021/09/23 01:12:46;;;;;;;36.95;25.17;;;12.90;86.60;;;;;;5023061;28;20106;-85
2021/09/23 01:15:15;;;;;;;41.10;26.42;;;12.90;86.60;;;;;;5017499;28;20030;-85
2021/09/23 01:17:41;;;;;;;39.42;24.45;;;12.90;86.50;;;;;;5017618;28;20022;-86
2021/09/23 01:20:08;;;;;;;36.90;23.73;;;12.90;86.50;;;;;;5016964;28;20038;-86
2021/09/23 01:22:33;;;;;;;31.85;22.70;;;12.90;86.50;;;;;;5018058;28;20018;-86
2021/09/23 01:25:00;;;;;;;33.92;24.27;;;12.80;86.50;;;;;;5019244;28;20029;-87
2021/09/23 01:27:25;;;;;;;36.63;25.48;;;12.80;86.60;;;;;;5028322;28;20029;-87
2021/09/23 01:29:51;;;;;;;35.25;24.40;;;12.80;86.80;;;;;;5022779;28;20406;-87
2021/09/23 01:32:19;;;;;;;37.60;25.17;;;12.80;86.90;;;;;;5020210;28;20049;-88
2021/09/23 01:34:44;;;;;;;41.50;25.17;;;12.80;87.00;;;;;;5027573;28;20022;-87
2021/09/23 01:37:10;;;;;;;38.30;25.15;;;12.70;87.10;;;;;;5038456;28;20014;-86
2021/09/23 01:39:37;;;;;;;37.92;25.65;;;12.70;87.20;;;;;;5034474;28;20034;-87
2021/09/23 01:42:04;;;;;;;40.15;27.30;;;12.60;87.50;;;;;;5019000;28;20385;-86
2021/09/23 01:44:30;;;;;;;39.05;25.90;;;12.60;88.40;;;;;;5019207;28;20022;-87
2021/09/23 01:46:55;;;;;;;38.25;26.27;;;12.50;87.80;;;;;;5017731;28;20390;-86
2021/09/23 01:49:21;;;;;;;37.15;25.70;;;12.50;88.00;;;;;;5035938;28;20045;-86
2021/09/23 01:51:47;;;;;;;38.20;27.20;;;12.50;88.10;;;;;;5024719;28;20272;-88
2021/09/23 01:54:14;;;;;;;39.65;27.10;;;12.40;88.00;;;;;;5023125;28;20065;-87
2021/09/23 01:56:39;;;;;;;42.33;29.00;;;12.40;88.10;;;;;;5019057;28;20033;-87
2021/09/23 01:59:05;;;;;;;47.67;27.10;;;12.40;88.40;;;;;;5017328;28;20018;-87
2021/09/23 02:01:31;;;;;;;44.05;26.30;;;12.40;88.50;;;;;;5017303;28;20516;-89
2021/09/23 02:03:56;;;;;;;48.13;29.67;;;12.40;88.50;;;;;;5018351;28;20026;-87
2021/09/23 02:06:23;;;;;;;49.20;27.63;;;12.40;88.40;;;;;;5018423;28;20478;-89
2021/09/23 02:08:49;;;;;;;49.42;27.35;;;12.40;88.40;;;;;;5018636;28;20022;-88
2021/09/23 02:11:14;;;;;;;46.10;28.05;;;12.40;88.30;;;;;;5018263;28;19998;-89
2021/09/23 02:13:47;;;;;;;47.63;25.73;;;12.40;88.30;;;;;;5023014;28;20026;-89
2021/09/23 02:16:13;;;;;;;43.55;25.20;;;12.40;88.40;;;;;;5003623;28;20073;-90
2021/09/23 02:18:38;;;;;;;52.88;28.27;;;12.40;88.30;;;;;;5019302;28;20022;-90
2021/09/23 02:21:06;;;;;;;44.47;27.67;;;12.40;88.30;;;;;;5019813;28;20041;-90
2021/09/23 02:23:31;;;;;;;48.75;28.13;;;12.40;88.30;;;;;;5019668;28;20018;-89
2021/09/23 02:25:57;;;;;;;42.20;26.52;;;12.40;88.30;;;;;;5029697;28;20032;-90
2021/09/23 02:28:23;;;;;;;44.67;27.05;;;12.30;88.80;;;;;;5033846;28;20026;-90
2021/09/23 02:30:49;;;;;;;54.13;30.20;;;12.40;88.30;;;;;;5021932;28;20030;-90
2021/09/23 02:33:14;;;;;;;48.53;27.35;;;12.40;88.40;;;;;;5023019;28;20083;-90
2021/09/23 02:35:40;;;;;;;56.78;31.23;;;12.30;88.30;;;;;;5032092;28;20030;-89
2021/09/23 02:38:05;;;;;;;49.50;29.13;;;12.30;88.40;;;;;;5035205;28;20030;-91
2021/09/23 02:40:31;;;;;;;56.65;29.58;;;12.30;88.60;;;;;;5038414;28;20070;-91
2021/09/23 02:42:57;;;;;;;53.95;29.08;;;12.20;88.50;;;;;;5034820;28;20037;-91
2021/09/23 02:45:22;;;;;;;56.10;30.70;;;12.20;88.70;;;;;;5021140;28;20431;-91
2021/09/23 02:47:48;;;;;;;51.70;30.88;;;12.20;88.80;;;;;;5018997;28;20034;-90
2021/09/23 02:50:14;;;;;;;47.92;28.17;;;12.20;88.90;;;;;;5019302;28;20352;-90
2021/09/23 02:52:41;;;;;;;50.42;28.73;;;12.10;89.00;;;;;;5019005;28;20018;-89
2021/09/23 02:55:07;;;;;;;49.75;30.02;;;12.20;89.10;;;;;;5019475;28;20022;-89
2021/09/23 02:57:32;;;;;;;54.03;31.80;;;12.10;89.10;;;;;;5027364;28;20034;-91
2021/09/23 02:59:58;;;;;;;56.17;31.85;;;12.10;89.20;;;;;;5034668;28;20033;-89
2021/09/23 03:02:24;;;;;;;49.80;29.35;;;12.10;89.20;;;;;;5037418;28;20014;-90
2021/09/23 03:04:49;;;;;;;45.08;28.05;;;12.10;89.20;;;;;;5024668;28;20037;-91
2021/09/23 03:07:15;;;;;;;51.10;29.98;;;12.10;89.20;;;;;;5031004;28;20049;-93
2021/09/23 03:09:41;;;;;;;51.20;29.30;;;12.10;89.20;;;;;;5027617;28;20034;-91
2021/09/23 03:12:07;;;;;;;54.97;31.58;;;12.10;89.20;;;;;;5018293;28;20030;-92
2021/09/23 03:14:32;;;;;;;44.72;28.42;;;12.10;89.30;;;;;;5018670;28;20441;-91
2021/09/23 03:16:59;;;;;;;52.08;30.95;;;12.00;89.30;;;;;;5018278;28;20029;-91
2021/09/23 03:19:27;;;;;;;53.25;33.28;;;12.00;90.00;;;;;;5018467;28;20017;-91
2021/09/23 03:21:54;;;;;;;52.80;30.95;;;12.00;89.30;;;;;;5018636;28;20033;-90
2021/09/23 03:24:20;;;;;;;58.15;30.85;;;12.00;89.30;;;;;;5019105;28;20025;-90
2021/09/23 03:26:45;;;;;;;53.70;31.35;;;12.00;89.30;;;;;;5022599;28;20164;-91
2021/09/23 03:29:11;;;;;;;54.97;32.03;;;12.10;89.50;;;;;;5029805;28;20049;-90
2021/09/23 03:31:38;;;;;;;51.85;31.85;;;12.10;89.50;;;;;;5034693;28;20019;-90
2021/09/23 03:34:05;;;;;;;53.08;30.13;;;12.00;89.40;;;;;;5016826;28;20029;-91
2021/09/23 03:36:32;;;;;;;50.28;30.52;;;12.00;89.90;;;;;;5018291;28;20011;-90
2021/09/23 03:38:58;;;;;;;51.42;29.08;;;12.10;89.30;;;;;;5018848;28;20490;-87
2021/09/23 03:41:25;;;;;;;51.33;29.65;;;12.00;89.30;;;;;;5036997;28;20034;-90
2021/09/23 03:43:51;;;;;;;52.45;30.27;;;12.00;89.30;;;;;;5021143;28;20026;-90
2021/09/23 03:46:19;;;;;;;52.95;32.58;;;12.00;89.50;;;;;;5018517;28;20026;-91
2021/09/23 03:48:45;;;;;;;51.33;29.83;;;12.00;89.50;;;;;;5022899;28;20041;-88
2021/09/23 03:51:13;;;;;;;45.45;29.50;;;12.00;89.50;;;;;;5021904;28;20018;-89
2021/09/23 03:53:39;;;;;;;56.38;31.00;;;12.00;89.50;;;;;;5020588;28;20061;-89
2021/09/23 03:56:06;;;;;;;49.65;30.80;;;11.90;89.50;;;;;;5021385;28;20053;-90
2021/09/23 03:58:33;;;;;;;54.40;30.13;;;12.00;89.60;;;;;;5022341;28;20034;-89
2021/09/23 04:00:58;;;;;;;54.70;32.67;;;12.00;89.60;;;;;;5021152;28;20164;-90
2021/09/23 04:03:24;;;;;;;46.78;29.08;;;12.00;89.70;;;;;;5022248;28;20069;-90
2021/09/23 04:05:51;;;;;;;53.25;31.83;;;12.00;89.70;;;;;;5022678;28;20037;-88
2021/09/23 04:08:16;;;;;;;54.58;32.80;;;12.00;89.70;;;;;;5020763;28;20018;-89
2021/09/23 04:10:42;;;;;;;49.33;29.90;;;11.90;90.10;;;;;;5021488;28;20092;-89
2021/09/23 04:13:07;;;;;;;49.20;31.15;;;11.90;89.70;;;;;;5021802;28;20030;-88
2021/09/23 04:15:33;;;;;;;52.45;30.45;;;11.90;89.80;;;;;;5021379;28;20030;-88
2021/09/23 04:17:59;;;;;;;52.83;34.30;;;11.90;89.90;;;;;;5038213;28;20117;-88
2021/09/23 04:20:24;;;;;;;56.35;32.22;;;11.90;90.00;;;;;;5028708;28;20196;-88
2021/09/23 04:22:50;;;;;;;47.95;30.58;;;11.80;90.00;;;;;;5018967;28;20376;-87
2021/09/23 04:25:16;;;;;;;48.60;30.38;;;11.80;90.00;;;;;;5022249;28;20026;-86
2021/09/23 04:27:41;;;;;;;48.53;31.40;;;11.80;90.00;;;;;;5035832;28;20037;-86
2021/09/23 04:30:09;;;;;;;52.55;31.27;;;11.80;90.00;;;;;;5037554;28;20085;-87
2021/09/23 04:32:34;;;;;;;52.03;32.75;;;11.80;90.10;;;;;;5039880;28;20025;-87
2021/09/23 04:35:00;;;;;;;52.22;30.38;;;11.80;90.10;;;;;;5037070;28;20010;-87
2021/09/23 04:37:25;;;;;;;50.53;31.58;;;11.80;90.10;;;;;;5022186;28;20072;-87
2021/09/23 04:39:51;;;;;;;51.70;31.25;;;11.70;90.10;;;;;;5020175;28;20065;-87
2021/09/23 04:42:17;;;;;;;48.47;31.00;;;11.70;90.10;;;;;;5018447;28;20389;-87
2021/09/23 04:44:42;;;;;;;52.90;32.25;;;11.70;90.20;;;;;;5020219;28;20022;-86
2021/09/23 04:47:08;;;;;;;54.45;34.08;;;11.70;90.20;;;;;;5024419;28;20399;-84
2021/09/23 04:49:34;;;;;;;51.13;31.80;;;11.70;90.20;;;;;;5028811;28;20022;-88
2021/09/23 04:51:59;;;;;;;54.85;33.30;;;11.70;90.20;;;;;;5017831;28;20128;-87
2021/09/23 04:54:25;;;;;;;53.60;31.95;;;11.70;90.20;;;;;;5021155;28;20033;-86
2021/09/23 04:56:51;;;;;;;53.78;33.05;;;11.70;90.20;;;;;;5019820;28;20033;-88
2021/09/23 04:59:16;;;;;;;53.63;33.78;;;11.60;90.30;;;;;;5017961;28;20113;-88
2021/09/23 05:01:42;;;;;;;60.47;33.17;;;11.70;90.30;;;;;;5019338;28;20352;-87
2021/09/23 05:04:08;;;;;;;55.25;35.35;;;11.60;90.30;;;;;;5018050;28;20044;-86
2021/09/23 05:06:33;;;;;;;50.70;32.78;;;11.60;90.40;;;;;;5036340;28;20038;-85
2021/09/23 05:09:01;;;;;;;55.20;33.03;;;11.60;90.40;;;;;;5026122;28;20394;-86
2021/09/23 05:11:27;;;;;;;52.80;33.75;;;11.60;90.50;;;;;;5018331;28;20084;-87
2021/09/23 05:13:53;;;;;;;55.72;32.83;;;11.60;90.50;;;;;;5019004;28;20083;-87
2021/09/23 05:16:19;;;;;;;56.60;35.60;;;11.60;90.50;;;;;;5017615;28;20025;-85
2021/09/23 05:18:45;;;;;;;54.78;34.47;;;11.60;90.50;;;;;;5030655;28;20017;-85
2021/09/23 05:21:10;;;;;;;47.42;30.58;;;11.60;90.60;;;;;;5037847;28;20030;-87
2021/09/23 05:23:37;;;;;;;48.28;28.92;;;11.60;90.70;;;;;;5033410;28;20088;-88
2021/09/23 05:26:04;;;;;;;50.30;33.83;;;11.60;90.60;;;;;;5017700;28;20045;-88
2021/09/23 05:28:29;;;;;;;53.33;34.33;;;11.60;90.70;;;;;;5017730;28;20084;-88
2021/09/23 05:30:55;;;;;;;50.25;32.50;;;11.60;90.70;;;;;;5022820;28;20026;-89
2021/09/23 05:33:21;;;;;;;47.92;31.55;;;11.70;90.70;;;;;;5036648;28;20037;-88
2021/09/23 05:35:47;;;;;;;54.95;34.10;;;11.70;90.70;;;;;;5019178;28;20033;-88
2021/09/23 05:38:13;;;;;;;46.08;32.45;;;11.70;90.70;;;;;;5017488;28;20017;-88
2021/09/23 05:40:39;;;;;;;52.47;34.17;;;11.70;90.70;;;;;;5018526;28;20026;-87
2021/09/23 05:43:05;;;;;;;52.83;32.53;;;11.80;90.70;;;;;;5017085;28;20092;-88
2021/09/23 05:45:31;;;;;;;50.88;33.22;;;11.70;90.70;;;;;;5017326;28;20033;-88
2021/09/23 05:47:57;;;;;;;51.10;34.17;;;11.80;90.70;;;;;;5017928;28;20037;-87
2021/09/23 05:50:23;;;;;;;53.83;36.05;;;11.80;90.70;;;;;;5018742;28;20022;-86
2021/09/23 05:52:49;;;;;;;51.75;32.42;;;11.80;90.90;;;;;;5016038;28;20026;-86
2021/09/23 05:55:14;;;;;;;52.00;32.33;;;11.90;90.60;;;;;;5016754;28;20017;-85
2021/09/23 05:57:40;;;;;;;49.78;32.33;;;11.90;90.50;;;;;;5015646;28;20381;-85
2021/09/23 06:00:12;;;;;;;47.85;29.60;;;12.00;90.50;;;;;;5017857;28;20025;-88
2021/09/23 06:02:38;;;;;;;50.50;32.45;;;12.00;90.50;;;;;;5018652;28;20022;-87
2021/09/23 06:05:05;;;;;;;53.50;33.58;;;12.00;90.40;;;;;;5021394;28;20045;-88
2021/09/23 06:07:30;;;;;;;45.88;31.13;;;12.10;90.40;;;;;;5024279;28;20037;-86
2021/09/23 06:09:56;;;;;;;45.15;31.90;;;12.20;90.30;;;;;;5023319;28;20065;-85
2021/09/23 06:12:21;;;;;;;47.15;32.80;;;12.20;90.20;;;;;;5018800;28;20017;-86
2021/09/23 06:14:48;;;;;;;47.03;31.63;;;12.30;90.10;;;;;;5020027;28;20025;-85
2021/09/23 06:17:14;;;;;;;44.83;30.55;;;12.30;90.00;;;;;;5023424;28;20025;-85
2021/09/23 06:19:40;;;;;;;48.83;32.25;;;12.30;90.00;;;;;;5033769;28;20017;-86
2021/09/23 06:22:07;;;;;;;45.00;30.15;;;12.40;90.00;;;;;;5034969;28;20014;-86
2021/09/23 06:24:33;;;;;;;42.70;31.52;;;12.40;89.80;;;;;;5037184;28;20021;-85
2021/09/23 06:26:59;;;;;;;44.03;28.85;;;12.50;89.60;;;;;;5017971;28;20038;-86
2021/09/23 06:29:24;;;;;;;46.88;32.65;;;12.60;89.50;;;;;;5030074;28;20048;-86
2021/09/23 06:31:52;;;;;;;49.38;32.65;;;12.60;89.40;;;;;;5016585;28;20022;-86
2021/09/23 06:34:19;;;;;;;47.00;33.03;;;12.80;89.40;;;;;;5015644;28;20089;-85
2021/09/23 06:36:44;;;;;;;45.03;31.00;;;12.80;89.30;;;;;;5015532;28;20068;-85
2021/09/23 06:39:10;;;;;;;43.95;30.50;;;12.90;89.10;;;;;;5015208;28;20034;-86
2021/09/23 06:41:36;;;;;;;50.15;34.28;;;13.00;89.00;;;;;;5016121;28;20026;-85
2021/09/23 06:44:04;;;;;;;47.60;32.15;;;13.10;88.70;;;;;;5015347;28;20458;-85
2021/09/23 06:46:30;;;;;;;48.92;33.35;;;13.20;88.70;;;;;;5022020;28;20042;-85
2021/09/23 06:48:56;;;;;;;47.20;31.05;;;13.30;88.40;;;;;;5015433;28;20059;-85
2021/09/23 06:51:21;;;;;;;48.88;33.92;;;13.40;88.50;;;;;;5016897;28;20041;-83
2021/09/23 06:53:49;;;;;;;46.42;32.33;;;13.50;88.50;;;;;;5015263;28;20061;-86
2021/09/23 06:56:15;;;;;;;52.95;36.80;;;13.60;88.30;;;;;;5015647;28;20022;-85
2021/09/23 06:58:41;;;;;;;49.35;34.08;;;13.60;88.30;;;;;;5016122;28;20026;-86
2021/09/23 07:01:06;;;;;;;48.28;35.08;;;13.80;88.30;;;;;;5015794;28;20028;-87
2021/09/23 07:03:32;;;;;;;47.95;32.22;;;13.90;88.00;;;;;;5027546;28;20022;-84
2021/09/23 07:05:57;;;;;;;48.25;34.25;;;13.90;87.40;;;;;;5018468;28;20076;-82
2021/09/23 07:08:23;;;;;;;45.35;31.25;;;13.90;87.60;;;;;;5017106;28;20072;-83
2021/09/23 07:10:50;;;;;;;52.22;35.92;;;14.00;87.80;;;;;;5025862;28;20034;-84
2021/09/23 07:13:19;;;;;;;53.03;35.25;;;14.00;88.50;;;;;;5035807;28;20431;-87
2021/09/23 07:15:45;;;;;;;56.35;36.00;;;14.00;88.60;;;;;;5030060;28;20088;-84
2021/09/23 07:18:11;;;;;;;53.55;37.08;;;13.90;89.30;;;;;;5016781;28;20025;-83
2021/09/23 07:20:37;;;;;;;57.95;37.78;;;14.00;90.00;;;;;;5014241;28;20109;-85
2021/09/23 07:23:03;;;;;;;55.28;37.42;;;14.10;89.80;;;;;;5016685;28;20026;-84
2021/09/23 07:25:30;;;;;;;48.35;35.17;;;14.30;90.00;;;;;;5013529;28;20076;-84
2021/09/23 07:27:56;;;;;;;49.47;33.50;;;14.40;89.80;;;;;;5014791;28;20014;-87
2021/09/23 07:30:23;;;;;;;46.20;33.47;;;14.70;89.00;;;;;;5017884;28;20025;-85
2021/09/23 07:32:50;;;;;;;51.47;38.47;;;14.80;89.40;;;;;;5015348;28;20022;-86
2021/09/23 07:35:16;;;;;;;48.20;35.58;;;14.80;88.60;;;;;;5014684;28;20040;-85
2021/09/23 07:37:42;;;;;;;51.35;34.53;;;14.90;89.00;;;;;;5013083;28;20018;-85
2021/09/23 07:40:10;;;;;;;60.72;38.78;;;14.90;88.70;;;;;;5014716;28;20474;-86
2021/09/23 07:42:36;;;;;;;55.90;36.13;;;14.90;89.00;;;;;;5015536;28;20030;-84
2021/09/23 07:45:04;;;;;;;55.85;39.92;;;14.90;89.20;;;;;;5014324;28;20040;-84
2021/09/23 07:47:41;;;;;;;57.28;38.03;;;14.90;90.10;;;;;;5015319;28;20037;-84
2021/09/23 07:50:08;;;;;;;50.65;35.08;;;15.00;90.20;;;;;;5016692;28;20033;-86
2021/09/23 07:52:33;;;;;;;47.10;33.00;;;15.10;90.10;;;;;;5013719;28;20101;-88
2021/09/23 07:54:59;;;;;;;58.75;40.72;;;15.20;89.10;;;;;;5014661;28;20050;-83
2021/09/23 07:57:25;;;;;;;37.15;25.92;;;15.50;89.40;;;;;;5017852;28;20080;-85
2021/09/23 07:59:50;;;;;;;40.85;27.73;;;15.70;87.20;;;;;;5023412;28;20022;-83
2021/09/23 08:02:16;;;;;;;35.67;25.17;;;16.10;87.40;;;;;;5014656;28;20414;-86
2021/09/23 08:04:42;;;;;;;31.85;23.33;;;16.30;85.70;;;;;;5019611;28;20026;-86
2021/09/23 08:07:07;;;;;;;40.72;29.15;;;16.50;84.60;;;;;;5019716;28;20030;-84
2021/09/23 08:09:33;;;;;;;34.17;25.92;;;16.70;83.20;;;;;;5018073;28;20074;-86
2021/09/23 08:11:59;;;;;;;31.02;23.88;;;16.90;84.50;;;;;;5024722;28;20026;-85
2021/09/23 08:14:28;;;;;;;31.50;21.33;;;17.10;84.20;;;;;;5030274;28;20061;-86
2021/09/23 08:16:53;;;;;;;35.08;23.73;;;17.20;82.50;;;;;;5035789;28;20017;-84
2021/09/23 08:19:19;;;;;;;40.45;24.60;;;17.30;82.90;;;;;;5032996;28;20022;-85
2021/09/23 08:21:47;;;;;;;28.50;21.50;;;17.40;81.40;;;;;;5015010;28;20018;-87
2021/09/23 08:24:12;;;;;;;34.25;25.85;;;17.50;82.00;;;;;;4998293;28;20463;-84
2021/09/23 08:26:38;;;;;;;36.97;25.45;;;17.60;81.90;;;;;;5013365;28;20071;-83
2021/09/23 08:29:06;;;;;;;31.45;23.73;;;17.70;81.20;;;;;;5013911;28;20018;-85
2021/09/23 08:31:32;;;;;;;39.30;24.95;;;17.90;81.10;;;;;;5013590;28;20021;-84
2021/09/23 08:33:58;;;;;;;31.40;24.75;;;18.00;80.00;;;;;;5017123;28;20047;-86
2021/09/23 08:36:23;;;;;;;35.78;24.98;;;18.10;80.30;;;;;;5020521;28;20022;-84
2021/09/23 08:38:50;;;;;;;29.33;22.08;;;18.10;79.80;;;;;;5017835;28;20030;-84
2021/09/23 08:41:16;;;;;;;30.05;21.15;;;18.10;79.20;;;;;;5017220;28;20030;-85
2021/09/23 08:43:42;;;;;;;32.00;22.75;;;18.00;79.70;;;;;;5018619;28;20026;-85
2021/09/23 08:46:08;;;;;;;32.33;23.67;;;17.90;79.60;;;;;;5018508;28;20093;-86
2021/09/23 08:48:34;;;;;;;28.40;20.55;;;17.80;79.60;;;;;;5018508;28;20014;-86
2021/09/23 08:51:01;;;;;;;33.72;20.98;;;17.70;80.00;;;;;;5006229;28;20050;-84
2021/09/23 08:53:28;;;;;;;34.08;23.48;;;17.70;80.80;;;;;;5022882;28;20026;-85
2021/09/23 08:55:54;;;;;;;39.88;27.48;;;17.80;80.60;;;;;;5017090;28;20030;-85
2021/09/23 08:58:20;;;;;;;33.22;23.63;;;18.00;80.00;;;;;;5016558;28;20021;-85
2021/09/23 09:01:09;;;;;;;33.38;23.77;;;18.10;79.40;;;;;;5026071;28;20534;-83
2021/09/23 09:03:36;;;;;;;33.00;24.23;;;18.30;79.70;;;;;;5038089;28;20038;-85
2021/09/23 09:06:09;;;;;;;36.88;26.73;;;18.50;78.50;;;;;;5038715;28;20037;-85
2021/09/23 09:08:36;;;;;;;27.23;19.00;;;18.50;78.60;;;;;;5022130;28;20030;-84
2021/09/23 09:11:04;;;;;;;22.30;16.20;;;18.40;78.70;;;;;;5017571;28;20026;-84
2021/09/23 09:13:41;;;;;;;28.50;20.10;;;18.30;79.30;;;;;;5024592;28;20021;-82
2021/09/23 09:16:19;;;;;;;25.63;19.02;;;18.20;80.00;;;;;;5020147;28;20142;-83
2021/09/23 09:18:47;;;;;;;28.73;21.30;;;18.00;80.00;;;;;;5015460;28;20121;-85
2021/09/23 09:21:15;;;;;;;20.85;15.82;;;18.00;80.60;;;;;;5015748;28;20455;-85
2021/09/23 09:23:53;;;;;;;20.58;14.73;;;17.90;80.40;;;;;;5016884;28;20124;-85
2021/09/23 09:26:32;;;;;;;22.85;16.05;;;17.90;80.70;;;;;;5017094;28;20032;-84
2021/09/23 09:29:05;;;;;;;23.30;15.68;;;17.90;80.20;;;;;;5019168;28;20038;-85
2021/09/23 09:31:32;;;;;;;21.65;13.43;;;17.90;80.90;;;;;;5016913;28;20033;-86
2021/09/23 09:34:17;;;;;;;23.77;15.48;;;17.90;79.60;;;;;;5021732;28;20019;-85
2021/09/23 09:36:51;;;;;;;23.45;16.35;;;17.90;80.00;;;;;;5004576;28;20439;-84
2021/09/23 09:39:20;;;;;;;20.65;13.55;;;17.90;80.10;;;;;;5019832;28;20034;-84
2021/09/23 09:41:48;;;;;;;20.50;15.27;;;18.00;80.00;;;;;;5020635;28;20033;-84
2021/09/23 09:44:15;;;;;;;19.95;14.57;;;18.20;79.90;;;;;;5021453;28;20022;-83
2021/09/23 09:46:53;;;;;;;27.20;20.23;;;18.40;79.10;;;;;;5016914;28;20117;-83
2021/09/23 09:49:22;;;;;;;25.95;18.63;;;18.80;79.50;;;;;;5014586;28;20030;-83
2021/09/23 09:51:51;;;;;;;28.38;19.00;;;19.10;78.50;;;;;;5015652;28;20467;-83
2021/09/23 09:54:18;;;;;;;25.00;17.17;;;19.50;76.80;;;;;;5015440;28;20117;-82
2021/09/23 09:56:46;;;;;;;26.27;17.80;;;19.70;75.90;;;;;;5015159;28;20026;-84
2021/09/23 09:59:17;;;;;;;26.40;18.60;;;19.80;74.20;;;;;;5015638;28;20029;-82
2021/09/23 10:01:51;;;;;;;25.10;17.80;;;19.80;75.10;;;;;;5021870;28;20033;-84
2021/09/23 10:04:18;;;;;;;22.60;16.88;;;19.70;74.60;;;;;;5036974;28;20014;-82
2021/09/23 10:06:46;;;;;;;24.00;15.27;;;19.70;74.70;;;;;;5036633;28;20014;-81
2021/09/23 10:09:14;;;;;;;23.13;15.75;;;19.80;74.50;;;;;;5036689;28;20028;-82
2021/09/23 10:11:42;;;;;;;24.25;17.08;;;19.90;73.80;;;;;;5034259;28;20025;-80
2021/09/23 10:14:10;;;;;;;26.17;18.70;;;19.80;74.10;;;;;;5016879;28;20521;-83
2021/09/23 10:16:37;;;;;;;24.27;15.52;;;19.70;74.90;;;;;;5014547;28;20068;-83
2021/09/23 10:19:04;;;;;;;20.58;13.20;;;19.50;74.60;;;;;;5014299;28;20029;-83
2021/09/23 10:21:30;;;;;;;19.52;13.07;;;19.40;74.90;;;;;;5015626;28;20121;-81
2021/09/23 10:23:56;;;;;;;29.60;16.13;;;19.30;74.50;;;;;;5013678;28;20112;-82
2021/09/23 10:26:26;;;;;;;17.25;12.82;;;19.30;75.10;;;;;;5015782;28;20030;-82
2021/09/23 10:28:55;;;;;;;26.00;14.27;;;19.10;73.80;;;;;;5014074;28;20033;-85
2021/09/23 10:31:22;;;;;;;17.30;12.30;;;19.10;75.20;;;;;;5014127;28;20114;-82
2021/09/23 10:33:49;;;;;;;19.50;12.23;;;19.10;75.70;;;;;;5014181;28;20029;-81
2021/09/23 10:36:20;;;;;;;22.50;13.20;;;19.10;75.40;;;;;;5013758;28;20026;-82
2021/09/23 10:38:57;;;;;;;22.40;13.43;;;19.10;75.50;;;;;;5013704;28;20058;-82
2021/09/23 10:41:42;;;;;;;15.70;10.20;;;19.10;75.80;;;;;;5014455;28;20049;-81
2021/09/23 10:44:08;;;;;;;15.40;11.13;;;19.00;75.60;;;;;;5015146;28;20034;-80
2021/09/23 10:46:35;;;;;;;17.20;11.70;;;18.90;76.30;;;;;;5012750;28;20489;-81
2021/09/23 10:49:03;;;;;;;23.77;12.93;;;18.70;76.50;;;;;;5013088;28;20025;-81
2021/09/23 10:51:32;;;;;;;14.27;10.18;;;18.60;77.20;;;;;;5016847;28;20281;-83
2021/09/23 10:53:59;;;;;;;20.08;10.65;;;18.60;77.70;;;;;;5031486;28;20086;-81
2021/09/23 10:56:27;;;;;;;19.27;9.85;;;18.50;77.80;;;;;;5035338;28;20018;-81
2021/09/23 10:58:54;;;;;;;13.77;9.07;;;18.50;77.70;;;;;;5026225;28;20042;-81
2021/09/23 11:01:32;;;;;;;20.08;8.05;;;18.50;78.10;;;;;;5013488;28;20022;-81
2021/09/23 11:04:01;;;;;;;14.88;8.70;;;18.50;77.60;;;;;;5023233;28;20060;-83
2021/09/23 11:06:41;;;;;;;14.32;6.85;;;18.50;78.30;;;;;;5013729;28;20112;-82
2021/09/23 11:09:21;;;;;;;14.98;7.45;;;18.50;78.00;;;;;;5014139;28;20026;-82
2021/09/23 11:11:52;;;;;;;8.32;3.53;;;18.50;78.00;;;;;;5018377;28;20032;-80
2021/09/23 11:14:19;;;;;;;8.68;4.28;;;18.50;77.20;;;;;;5027687;28;20037;-83
2021/09/23 11:16:50;;;;;;;12.63;6.35;;;18.60;75.90;;;;;;5026360;28;20022;-81
2021/09/23 11:19:19;;;;;;;20.60;6.57;;;18.50;77.10;;;;;;5018256;28;20386;-81
2021/09/23 11:21:47;;;;;;;12.48;6.22;;;18.50;77.70;;;;;;5019585;28;20018;-82
2021/09/23 11:24:14;;;;;;;11.48;5.93;;;18.50;77.80;;;;;;5014295;28;20022;-81
2021/09/23 11:26:40;;;;;;;12.38;6.10;;;18.50;78.00;;;;;;5013333;28;20034;-81
2021/09/23 11:29:06;;;;;;;11.38;5.47;;;18.40;77.90;;;;;;5013314;28;20026;-82
2021/09/23 11:32:04;;;;;;;18.17;6.03;;;18.50;77.90;;;;;;5013635;28;20435;-82
2021/09/23 11:34:36;;;;;;;10.57;5.00;;;18.50;78.20;;;;;;4990552;28;20059;-81
2021/09/23 11:37:04;;;;;;;13.13;5.00;;;18.60;77.60;;;;;;5013732;28;20030;-82
2021/09/23 11:39:29;;;;;;;10.20;4.15;;;18.60;76.70;;;;;;5021993;28;20059;-81
2021/09/23 11:42:06;;;;;;;7.68;4.38;;;18.60;76.60;;;;;;5017999;28;20030;-81
2021/09/23 11:44:32;;;;;;;12.52;4.25;;;18.60;75.90;;;;;;5014289;28;20026;-81
2021/09/23 11:46:58;;;;;;;10.85;4.50;;;18.70;76.90;;;;;;5012985;28;20026;-81
2021/09/23 11:49:24;;;;;;;12.63;4.55;;;19.20;75.60;;;;;;5012368;28;20026;-81
2021/09/23 11:51:50;;;;;;;10.15;3.80;;;19.70;74.00;;;;;;5014334;28;20518;-85
2021/09/23 11:54:23;;;;;;;14.27;4.22;;;20.10;72.20;;;;;;5027804;28;20053;-85
2021/09/23 11:56:49;;;;;;;8.68;4.10;;;20.40;69.80;;;;;;5034985;28;20018;-82
2021/09/23 11:59:25;;;;;;;7.90;3.58;;;20.60;69.50;;;;;;5036019;28;20030;-84
2021/09/23 12:02:05;;;;;;;13.13;4.30;;;20.90;69.20;;;;;;5030971;28;20025;-83
2021/09/23 12:04:32;;;;;;;9.27;3.97;;;21.20;66.10;;;;;;5013181;28;20033;-82
2021/09/23 12:07:03;;;;;;;9.13;4.40;;;21.10;67.00;;;;;;5009740;28;20022;-80
2021/09/23 12:09:29;;;;;;;7.95;3.58;;;21.00;67.60;;;;;;5017537;28;20025;-84
2021/09/23 12:11:55;;;;;;;11.60;4.57;;;20.90;68.30;;;;;;5018754;28;20022;-84
2021/09/23 12:14:20;;;;;;;10.20;4.55;;;20.90;67.70;;;;;;5018959;28;20084;-85
2021/09/23 12:16:48;;;;;;;8.20;3.38;;;21.10;66.50;;;;;;5032445;28;20034;-86
2021/09/23 12:19:17;;;;;;;11.15;3.40;;;21.20;67.40;;;;;;5022989;28;20021;-84
2021/09/23 12:21:51;;;;;;;10.23;4.25;;;21.20;66.70;;;;;;5016467;28;20112;-84
2021/09/23 12:24:17;;;;;;;14.05;3.78;;;21.20;65.80;;;;;;5016674;28;20022;-81
2021/09/23 12:26:44;;;;;;;9.18;3.75;;;21.10;67.60;;;;;;5017383;28;20091;-83
2021/09/23 12:29:24;;;;;;;12.18;4.05;;;21.30;67.40;;;;;;5015786;28;20018;-81